Blackfoot, Montana
Current Conditions -  °F | °C
As of 12:18 PM on Friday 28 Nov 2014 (Local Time) from KCTB Reporting Station
Light Snow Light Snow  
Wind Chill: -8°   Ceiling: 700
Heat Index: 12°   Visibility: 1.5mi
Dew Point:   Wind: 26mph
Humidity: 84%   Direction: 360°N
Pressure: 29.48"   Gusts: NA
Location:  48.5484°N, 112.952°W
Report Text: KCTB 281918Z AUTO 36023KT 1 1/2SM -SN BR OVC007 M11/M13 A2948 RMK AO2 PK WND 36027/1918 P0000 T11111133
Loading
Personal Weather Stations






























Interactive Weather Map New forecast layout! Learn more

10-Day Weather Forecast

Advertisements
Track Severe Weather on mobile